sensor_id;sensor_type;location;lat;lon;timestamp;pressure;altitude;pressure_sealevel;temperature;humidity
58698;BME280;44475;53.206;-6.106;2023-07-13T00:02:25;101250.22;;;24.81;47.94
58698;BME280;44475;53.206;-6.106;2023-07-13T00:04:53;101253.25;;;24.77;47.96
58698;BME280;44475;53.206;-6.106;2023-07-13T00:07:19;101257.84;;;24.77;47.99
58698;BME280;44475;53.206;-6.106;2023-07-13T00:09:49;101254.09;;;24.78;47.90
58698;BME280;44475;53.206;-6.106;2023-07-13T00:14:52;101257.97;;;24.75;47.85
58698;BME280;44475;53.206;-6.106;2023-07-13T00:17:18;101267.94;;;24.76;47.93
58698;BME280;44475;53.206;-6.106;2023-07-13T00:19:44;101259.59;;;24.78;47.92
58698;BME280;44475;53.206;-6.106;2023-07-13T00:22:11;101273.56;;;24.75;47.87
58698;BME280;44475;53.206;-6.106;2023-07-13T00:24:37;101269.69;;;24.77;47.93
58698;BME280;44475;53.206;-6.106;2023-07-13T00:27:11;101263.34;;;24.77;47.71
58698;BME280;44475;53.206;-6.106;2023-07-13T00:29:38;101261.72;;;24.74;47.65
58698;BME280;44475;53.206;-6.106;2023-07-13T00:32:05;101263.47;;;24.75;47.88
58698;BME280;44475;53.206;-6.106;2023-07-13T00:34:32;101256.13;;;24.76;47.74
58698;BME280;44475;53.206;-6.106;2023-07-13T00:36:58;101262.47;;;24.76;47.94
58698;BME280;44475;53.206;-6.106;2023-07-13T00:39:25;101259.59;;;24.78;47.63
58698;BME280;44475;53.206;-6.106;2023-07-13T00:41:52;101258.84;;;24.76;47.76
58698;BME280;44475;53.206;-6.106;2023-07-13T00:44:20;101260.84;;;24.74;47.92
58698;BME280;44475;53.206;-6.106;2023-07-13T00:46:49;101265.34;;;24.75;47.77
58698;BME280;44475;53.206;-6.106;2023-07-13T00:49:20;101261.47;;;24.77;47.74
58698;BME280;44475;53.206;-6.106;2023-07-13T00:51:59;101260.47;;;24.78;47.62
58698;BME280;44475;53.206;-6.106;2023-07-13T00:54:34;101258.72;;;24.77;47.63
58698;BME280;44475;53.206;-6.106;2023-07-13T00:57:04;101252.84;;;24.82;47.84
58698;BME280;44475;53.206;-6.106;2023-07-13T00:59:32;101253.25;;;24.77;47.76
58698;BME280;44475;53.206;-6.106;2023-07-13T01:02:02;101246.50;;;24.82;47.79
58698;BME280;44475;53.206;-6.106;2023-07-13T01:04:28;101249.63;;;24.77;47.69
58698;BME280;44475;53.206;-6.106;2023-07-13T01:06:55;101244.88;;;24.79;47.66
58698;BME280;44475;53.206;-6.106;2023-07-13T01:09:23;101246.03;;;24.76;47.76
58698;BME280;44475;53.206;-6.106;2023-07-13T01:11:50;101241.28;;;24.78;47.75
58698;BME280;44475;53.206;-6.106;2023-07-13T01:14:16;101244.16;;;24.77;47.76
58698;BME280;44475;53.206;-6.106;2023-07-13T01:16:44;101239.81;;;24.74;47.78
58698;BME280;44475;53.206;-6.106;2023-07-13T01:22:17;101249.31;;;24.70;47.94
58698;BME280;44475;53.206;-6.106;2023-07-13T01:24:45;101240.41;;;24.78;47.81
58698;BME280;44475;53.206;-6.106;2023-07-13T01:27:15;101242.88;;;24.81;47.82
58698;BME280;44475;53.206;-6.106;2023-07-13T01:29:43;101238.53;;;24.78;47.66
58698;BME280;44475;53.206;-6.106;2023-07-13T01:32:12;101242.41;;;24.76;47.85
58698;BME280;44475;53.206;-6.106;2023-07-13T01:34:38;101229.72;;;24.75;47.75
58698;BME280;44475;53.206;-6.106;2023-07-13T01:37:09;101232.91;;;24.80;47.76
58698;BME280;44475;53.206;-6.106;2023-07-13T01:39:36;101243.41;;;24.75;47.89
58698;BME280;44475;53.206;-6.106;2023-07-13T01:42:03;101243.16;;;24.78;47.46
58698;BME280;44475;53.206;-6.106;2023-07-13T01:44:29;101240.66;;;24.75;47.91
58698;BME280;44475;53.206;-6.106;2023-07-13T01:46:56;101247.88;;;24.76;47.97
58698;BME280;44475;53.206;-6.106;2023-07-13T01:49:22;101243.16;;;24.78;47.69
58698;BME280;44475;53.206;-6.106;2023-07-13T01:51:49;101244.16;;;24.77;47.83
58698;BME280;44475;53.206;-6.106;2023-07-13T01:54:15;101246.75;;;24.78;47.93
58698;BME280;44475;53.206;-6.106;2023-07-13T01:56:43;101240.66;;;24.75;47.87
58698;BME280;44475;53.206;-6.106;2023-07-13T01:59:09;101239.66;;;24.76;47.65
58698;BME280;44475;53.206;-6.106;2023-07-13T02:01:36;101242.28;;;24.77;47.64
58698;BME280;44475;53.206;-6.106;2023-07-13T02:04:02;101239.53;;;24.77;47.79
58698;BME280;44475;53.206;-6.106;2023-07-13T02:06:33;101233.94;;;24.79;47.78
58698;BME280;44475;53.206;-6.106;2023-07-13T02:08:59;101233.78;;;24.81;47.63
58698;BME280;44475;53.206;-6.106;2023-07-13T02:11:26;101228.44;;;24.79;47.63
58698;BME280;44475;53.206;-6.106;2023-07-13T02:13:59;101227.72;;;24.77;47.55
58698;BME280;44475;53.206;-6.106;2023-07-13T02:16:25;101223.97;;;24.78;47.99
58698;BME280;44475;53.206;-6.106;2023-07-13T02:18:52;101229.56;;;24.76;47.87
58698;BME280;44475;53.206;-6.106;2023-07-13T02:21:18;101229.56;;;24.76;47.84
58698;BME280;44475;53.206;-6.106;2023-07-13T02:23:44;101233.94;;;24.79;47.98
58698;BME280;44475;53.206;-6.106;2023-07-13T02:26:10;101231.44;;;24.76;47.85
58698;BME280;44475;53.206;-6.106;2023-07-13T02:28:37;101234.19;;;24.76;48.07
58698;BME280;44475;53.206;-6.106;2023-07-13T02:31:08;101226.56;;;24.80;47.85
58698;BME280;44475;53.206;-6.106;2023-07-13T02:33:35;101233.31;;;24.75;47.90
58698;BME280;44475;53.206;-6.106;2023-07-13T02:36:01;101232.91;;;24.80;47.66
58698;BME280;44475;53.206;-6.106;2023-07-13T02:38:27;101229.31;;;24.80;47.82
58698;BME280;44475;53.206;-6.106;2023-07-13T02:40:54;101237.94;;;24.75;47.78
58698;BME280;44475;53.206;-6.106;2023-07-13T02:43:20;101237.06;;;24.74;47.96
58698;BME280;44475;53.206;-6.106;2023-07-13T02:45:47;101233.44;;;24.74;47.66
58698;BME280;44475;53.206;-6.106;2023-07-13T02:48:14;101242.41;;;24.76;47.79
58698;BME280;44475;53.206;-6.106;2023-07-13T02:50:40;101230.72;;;24.74;47.92
58698;BME280;44475;53.206;-6.106;2023-07-13T02:53:07;101239.09;;;24.72;47.93
58698;BME280;44475;53.206;-6.106;2023-07-13T02:55:33;101232.63;;;24.73;47.57
58698;BME280;44475;53.206;-6.106;2023-07-13T02:57:59;101229.28;;;24.70;47.65
58698;BME280;44475;53.206;-6.106;2023-07-13T03:00:25;101230.00;;;24.72;47.89
58698;BME280;44475;53.206;-6.106;2023-07-13T03:02:52;101230.72;;;24.74;47.84
58698;BME280;44475;53.206;-6.106;2023-07-13T03:05:18;101237.06;;;24.74;47.88
58698;BME280;44475;53.206;-6.106;2023-07-13T03:07:45;101239.97;;;24.73;47.96
58698;BME280;44475;53.206;-6.106;2023-07-13T03:10:11;101237.22;;;24.73;47.98
58698;BME280;44475;53.206;-6.106;2023-07-13T03:12:44;101238.81;;;24.75;47.75
58698;BME280;44475;53.206;-6.106;2023-07-13T03:15:18;101233.75;;;24.71;47.79
58698;BME280;44475;53.206;-6.106;2023-07-13T03:17:45;101232.63;;;24.73;47.91
58698;BME280;44475;53.206;-6.106;2023-07-13T03:20:12;101238.22;;;24.72;47.95
58698;BME280;44475;53.206;-6.106;2023-07-13T03:22:38;101235.50;;;24.72;48.04
58698;BME280;44475;53.206;-6.106;2023-07-13T03:25:05;101229.53;;;24.66;47.58
58698;BME280;44475;53.206;-6.106;2023-07-13T03:27:31;101237.81;;;24.76;47.67
58698;BME280;44475;53.206;-6.106;2023-07-13T03:29:58;101237.34;;;24.71;47.84
58698;BME280;44475;53.206;-6.106;2023-07-13T03:32:24;101228.72;;;24.76;47.58
58698;BME280;44475;53.206;-6.106;2023-07-13T03:34:50;101228.13;;;24.72;47.99
58698;BME280;44475;53.206;-6.106;2023-07-13T03:37:17;101226.53;;;24.70;47.93
58698;BME280;44475;53.206;-6.106;2023-07-13T03:39:44;101231.00;;;24.71;47.98
58698;BME280;44475;53.206;-6.106;2023-07-13T03:42:10;101242.84;;;24.71;47.74
58698;BME280;44475;53.206;-6.106;2023-07-13T03:44:36;101233.88;;;24.69;48.04
58698;BME280;44475;53.206;-6.106;2023-07-13T03:47:04;101236.19;;;24.74;47.97
58698;BME280;44475;53.206;-6.106;2023-07-13T03:49:32;101233.00;;;24.68;47.94
58698;BME280;44475;53.206;-6.106;2023-07-13T03:51:58;101241.84;;;24.72;47.83
58698;BME280;44475;53.206;-6.106;2023-07-13T03:54:25;101241.97;;;24.71;47.59
58698;BME280;44475;53.206;-6.106;2023-07-13T03:56:51;101242.84;;;24.71;47.73
58698;BME280;44475;53.206;-6.106;2023-07-13T03:59:19;101237.34;;;24.71;47.74
58698;BME280;44475;53.206;-6.106;2023-07-13T04:01:46;101234.75;;;24.70;47.67
58698;BME280;44475;53.206;-6.106;2023-07-13T04:04:12;101238.81;;;24.75;47.63
58698;BME280;44475;53.206;-6.106;2023-07-13T04:06:39;101236.19;;;24.74;47.63
58698;BME280;44475;53.206;-6.106;2023-07-13T04:09:05;101240.84;;;24.73;47.77
58698;BME280;44475;53.206;-6.106;2023-07-13T04:11:32;101240.53;;;24.76;47.47
58698;BME280;44475;53.206;-6.106;2023-07-13T04:14:00;101245.97;;;24.66;47.88
58698;BME280;44475;53.206;-6.106;2023-07-13T04:16:26;101257.28;;;24.73;47.73
58698;BME280;44475;53.206;-6.106;2023-07-13T04:18:52;101253.94;;;24.70;47.93
58698;BME280;44475;53.206;-6.106;2023-07-13T04:21:21;101259.16;;;24.73;47.63
58698;BME280;44475;53.206;-6.106;2023-07-13T04:23:48;101260.84;;;24.74;47.53
58698;BME280;44475;53.206;-6.106;2023-07-13T04:26:14;101259.84;;;24.75;47.44
58698;BME280;44475;53.206;-6.106;2023-07-13T04:28:40;101262.75;;;24.73;47.41
58698;BME280;44475;53.206;-6.106;2023-07-13T04:31:06;101259.53;;;24.68;47.70
58698;BME280;44475;53.206;-6.106;2023-07-13T04:33:33;101259.41;;;24.70;47.61
58698;BME280;44475;53.206;-6.106;2023-07-13T04:35:59;101255.81;;;24.69;47.67
58698;BME280;44475;53.206;-6.106;2023-07-13T04:38:29;101256.81;;;24.68;47.77
58698;BME280;44475;53.206;-6.106;2023-07-13T04:40:58;101262.16;;;24.70;47.76
58698;BME280;44475;53.206;-6.106;2023-07-13T04:43:25;101257.81;;;24.67;47.79
58698;BME280;44475;53.206;-6.106;2023-07-13T04:45:52;101263.28;;;24.67;47.81
58698;BME280;44475;53.206;-6.106;2023-07-13T04:48:19;101264.88;;;24.70;47.59
58698;BME280;44475;53.206;-6.106;2023-07-13T04:50:46;101263.03;;;24.70;47.56
58698;BME280;44475;53.206;-6.106;2023-07-13T04:53:13;101264.88;;;24.70;47.67
58698;BME280;44475;53.206;-6.106;2023-07-13T04:55:39;101272.97;;;24.71;47.79
58698;BME280;44475;53.206;-6.106;2023-07-13T04:58:07;101279.47;;;24.70;47.83
58698;BME280;44475;53.206;-6.106;2023-07-13T05:00:33;101271.94;;;24.62;47.90
58698;BME280;44475;53.206;-6.106;2023-07-13T05:02:59;101273.50;;;24.65;47.87
58698;BME280;44475;53.206;-6.106;2023-07-13T05:05:26;101275.53;;;24.63;47.75
58698;BME280;44475;53.206;-6.106;2023-07-13T05:07:53;101274.84;;;24.71;47.65
58698;BME280;44475;53.206;-6.106;2023-07-13T05:10:19;101269.63;;;24.67;47.54
58698;BME280;44475;53.206;-6.106;2023-07-13T05:12:46;101267.50;;;24.71;47.62
58698;BME280;44475;53.206;-6.106;2023-07-13T05:15:12;101269.38;;;24.71;47.54
58698;BME280;44475;53.206;-6.106;2023-07-13T05:17:39;101275.97;;;24.68;47.77
58698;BME280;44475;53.206;-6.106;2023-07-13T05:20:08;101277.72;;;24.69;47.72
58698;BME280;44475;53.206;-6.106;2023-07-13T05:22:34;101272.09;;;24.71;47.59
58698;BME280;44475;53.206;-6.106;2023-07-13T05:25:04;101272.25;;;24.69;47.94
58698;BME280;44475;53.206;-6.106;2023-07-13T05:27:30;101274.25;;;24.67;47.81
58698;BME280;44475;53.206;-6.106;2023-07-13T05:29:57;101280.47;;;24.69;47.86
58698;BME280;44475;53.206;-6.106;2023-07-13T05:32:23;101280.59;;;24.67;47.77
58698;BME280;44475;53.206;-6.106;2023-07-13T05:34:49;101283.19;;;24.69;47.54
58698;BME280;44475;53.206;-6.106;2023-07-13T05:37:15;101276.97;;;24.67;47.61
58698;BME280;44475;53.206;-6.106;2023-07-13T05:39:42;101276.97;;;24.67;47.79
58698;BME280;44475;53.206;-6.106;2023-07-13T05:42:08;101286.81;;;24.70;47.67
58698;BME280;44475;53.206;-6.106;2023-07-13T05:44:35;101286.81;;;24.70;47.68
58698;BME280;44475;53.206;-6.106;2023-07-13T05:47:01;101295.16;;;24.68;47.67
58698;BME280;44475;53.206;-6.106;2023-07-13T05:49:27;101286.06;;;24.67;47.89
58698;BME280;44475;53.206;-6.106;2023-07-13T05:51:54;101291.28;;;24.71;47.61
58698;BME280;44475;53.206;-6.106;2023-07-13T05:54:20;101286.94;;;24.68;47.66
58698;BME280;44475;53.206;-6.106;2023-07-13T05:56:46;101298.50;;;24.72;47.60
58698;BME280;44475;53.206;-6.106;2023-07-13T05:59:13;101301.50;;;24.68;47.60
58698;BME280;44475;53.206;-6.106;2023-07-13T06:01:39;101296.78;;;24.71;47.53
58698;BME280;44475;53.206;-6.106;2023-07-13T06:04:05;101300.91;;;24.65;47.78
58698;BME280;44475;53.206;-6.106;2023-07-13T06:06:32;101297.28;;;24.64;47.68
58698;BME280;44475;53.206;-6.106;2023-07-13T06:08:58;101297.91;;;24.68;47.60
58698;BME280;44475;53.206;-6.106;2023-07-13T06:11:26;101296.03;;;24.68;47.89
58698;BME280;44475;53.206;-6.106;2023-07-13T06:13:53;101291.41;;;24.69;47.70
58698;BME280;44475;53.206;-6.106;2023-07-13T06:16:20;101295.28;;;24.66;47.61
58698;BME280;44475;53.206;-6.106;2023-07-13T06:18:46;101298.50;;;24.72;47.58
58698;BME280;44475;53.206;-6.106;2023-07-13T06:21:15;101303.38;;;24.68;47.68
58698;BME280;44475;53.206;-6.106;2023-07-13T06:23:43;101303.25;;;24.70;47.71
58698;BME280;44475;53.206;-6.106;2023-07-13T06:26:10;101301.03;;;24.63;47.88
58698;BME280;44475;53.206;-6.106;2023-07-13T06:28:37;101301.63;;;24.67;47.82
58698;BME280;44475;53.206;-6.106;2023-07-13T06:31:06;101314.09;;;24.71;47.81
58698;BME280;44475;53.206;-6.106;2023-07-13T06:33:32;101308.47;;;24.73;47.65
58698;BME280;44475;53.206;-6.106;2023-07-13T06:35:59;101310.19;;;24.74;47.71
58698;BME280;44475;53.206;-6.106;2023-07-13T06:38:25;101312.59;;;24.67;48.16
58698;BME280;44475;53.206;-6.106;2023-07-13T06:40:52;101311.72;;;24.66;48.38
58698;BME280;44475;53.206;-6.106;2023-07-13T06:43:18;101299.59;;;24.59;48.77
58698;BME280;44475;53.206;-6.106;2023-07-13T06:45:48;101306.84;;;24.70;48.85
58698;BME280;44475;53.206;-6.106;2023-07-13T06:48:16;101303.69;;;24.75;48.89
58698;BME280;44475;53.206;-6.106;2023-07-13T06:50:44;101311.03;;;24.74;48.70
58698;BME280;44475;53.206;-6.106;2023-07-13T06:53:11;101309.13;;;24.65;48.94
58698;BME280;44475;53.206;-6.106;2023-07-13T06:55:38;101309.00;;;24.66;48.81
58698;BME280;44475;53.206;-6.106;2023-07-13T06:58:04;101307.81;;;24.59;48.75
58698;BME280;44475;53.206;-6.106;2023-07-13T07:00:31;101308.59;;;24.71;48.41
58698;BME280;44475;53.206;-6.106;2023-07-13T07:02:57;101306.19;;;24.78;48.19
58698;BME280;44475;53.206;-6.106;2023-07-13T07:05:23;101311.34;;;24.71;48.15
58698;BME280;44475;53.206;-6.106;2023-07-13T07:07:51;101319.22;;;24.64;48.34
58698;BME280;44475;53.206;-6.106;2023-07-13T07:10:18;101324.84;;;24.63;48.29
58698;BME280;44475;53.206;-6.106;2023-07-13T07:12:45;101336.50;;;24.65;48.28
58698;BME280;44475;53.206;-6.106;2023-07-13T07:15:12;101328.66;;;24.72;48.35
58698;BME280;44475;53.206;-6.106;2023-07-13T07:17:38;101327.66;;;24.73;48.25
58698;BME280;44475;53.206;-6.106;2023-07-13T07:20:05;101335.31;;;24.79;48.06
58698;BME280;44475;53.206;-6.106;2023-07-13T07:22:32;101334.84;;;24.74;48.35
58698;BME280;44475;53.206;-6.106;2023-07-13T07:24:58;101341.78;;;24.78;48.19
58698;BME280;44475;53.206;-6.106;2023-07-13T07:27:25;101333.72;;;24.76;48.50
58698;BME280;44475;53.206;-6.106;2023-07-13T07:29:51;101333.44;;;24.80;48.24
58698;BME280;44475;53.206;-6.106;2023-07-13T07:32:19;101333.44;;;24.80;48.31
58698;BME280;44475;53.206;-6.106;2023-07-13T07:34:46;101328.97;;;24.78;48.33
58698;BME280;44475;53.206;-6.106;2023-07-13T07:37:13;101334.06;;;24.83;48.23
58698;BME280;44475;53.206;-6.106;2023-07-13T07:39:40;101330.44;;;24.83;48.42
58698;BME280;44475;53.206;-6.106;2023-07-13T07:42:06;101329.56;;;24.82;48.33
58698;BME280;44475;53.206;-6.106;2023-07-13T07:44:33;101341.06;;;24.76;48.53
58698;BME280;44475;53.206;-6.106;2023-07-13T07:47:00;101343.41;;;24.81;48.57
58698;BME280;44475;53.206;-6.106;2023-07-13T07:49:26;101344.16;;;24.83;48.22
58698;BME280;44475;53.206;-6.106;2023-07-13T07:51:53;101340.66;;;24.81;48.31
58698;BME280;44475;53.206;-6.106;2023-07-13T07:54:19;101341.66;;;24.80;48.42
58698;BME280;44475;53.206;-6.106;2023-07-13T07:56:45;101351.16;;;24.75;48.27
58698;BME280;44475;53.206;-6.106;2023-07-13T07:59:11;101342.81;;;24.77;48.52
58698;BME280;44475;53.206;-6.106;2023-07-13T08:01:37;101347.81;;;24.72;48.71
58698;BME280;44475;53.206;-6.106;2023-07-13T08:04:04;101351.09;;;24.65;48.87
58698;BME280;44475;53.206;-6.106;2023-07-13T08:06:32;101358.84;;;24.60;49.04
58698;BME280;44475;53.206;-6.106;2023-07-13T08:08:59;101356.44;;;24.67;48.76
58698;BME280;44475;53.206;-6.106;2023-07-13T08:11:26;101352.31;;;24.73;48.72
58698;BME280;44475;53.206;-6.106;2023-07-13T08:13:52;101351.16;;;24.54;48.93
58698;BME280;44475;53.206;-6.106;2023-07-13T08:16:18;101358.38;;;24.55;48.96
58698;BME280;44475;53.206;-6.106;2023-07-13T08:18:44;101352.88;;;24.55;49.11
58698;BME280;44475;53.206;-6.106;2023-07-13T08:21:11;101361.59;;;24.60;49.00
58698;BME280;44475;53.206;-6.106;2023-07-13T08:23:37;101361.31;;;24.63;49.01
58698;BME280;44475;53.206;-6.106;2023-07-13T08:26:03;101368.13;;;24.36;49.55
58698;BME280;44475;53.206;-6.106;2023-07-13T08:28:30;101366.63;;;24.43;49.44
58698;BME280;44475;53.206;-6.106;2023-07-13T08:31:05;101366.53;;;24.66;48.98
58698;BME280;44475;53.206;-6.106;2023-07-13T08:33:35;101364.47;;;24.80;48.60
58698;BME280;44475;53.206;-6.106;2023-07-13T08:36:02;101363.47;;;24.81;48.62
58698;BME280;44475;53.206;-6.106;2023-07-13T08:38:28;101351.22;;;24.85;48.47
58698;BME280;44475;53.206;-6.106;2023-07-13T08:40:56;101359.31;;;24.87;48.46
58698;BME280;44475;53.206;-6.106;2023-07-13T08:43:36;101358.56;;;24.85;48.51
58698;BME280;44475;53.206;-6.106;2023-07-13T08:46:09;101348.22;;;24.88;48.26
58698;BME280;44475;53.206;-6.106;2023-07-13T08:48:58;101348.22;;;24.88;48.45
58698;BME280;44475;53.206;-6.106;2023-07-13T08:51:46;101344.34;;;24.91;48.47
58698;BME280;44475;53.206;-6.106;2023-07-13T08:54:21;101343.84;;;24.86;48.65
58698;BME280;44475;53.206;-6.106;2023-07-13T08:56:51;101341.84;;;24.88;48.47
58698;BME280;44475;53.206;-6.106;2023-07-13T08:59:22;101344.34;;;24.91;48.70
58698;BME280;44475;53.206;-6.106;2023-07-13T09:04:32;101336.50;;;24.86;48.52
58698;BME280;44475;53.206;-6.106;2023-07-13T09:07:29;101333.09;;;24.94;48.26
58698;BME280;44475;53.206;-6.106;2023-07-13T09:13:00;101338.97;;;24.90;48.64
58698;BME280;44475;53.206;-6.106;2023-07-13T09:15:39;101343.91;;;24.96;48.53
58698;BME280;44475;53.206;-6.106;2023-07-13T09:18:21;101344.19;;;24.93;48.75
58698;BME280;44475;53.206;-6.106;2023-07-13T09:20:54;101339.28;;;24.96;48.63
58698;BME280;44475;53.206;-6.106;2023-07-13T09:23:26;101339.78;;;25.02;48.57
58698;BME280;44475;53.206;-6.106;2023-07-13T09:28:43;101329.19;;;24.97;48.70
58698;BME280;44475;53.206;-6.106;2023-07-13T09:31:33;101331.94;;;24.97;48.48
58698;BME280;44475;53.206;-6.106;2023-07-13T09:34:01;101338.28;;;24.97;48.54
58698;BME280;44475;53.206;-6.106;2023-07-13T09:36:32;101346.81;;;24.94;48.65
58698;BME280;44475;53.206;-6.106;2023-07-13T09:46:57;101358.50;;;24.96;48.48
58698;BME280;44475;53.206;-6.106;2023-07-13T09:49:44;101357.63;;;24.96;49.04
58698;BME280;44475;53.206;-6.106;2023-07-13T09:52:15;101356.09;;;25.03;48.59
58698;BME280;44475;53.206;-6.106;2023-07-13T09:54:46;101353.13;;;24.95;48.67
58698;BME280;44475;53.206;-6.106;2023-07-13T09:57:17;101357.47;;;24.97;48.79
58698;BME280;44475;53.206;-6.106;2023-07-13T09:59:46;101359.22;;;24.98;48.74
58698;BME280;44475;53.206;-6.106;2023-07-13T10:02:32;101370.94;;;25.01;48.81
58698;BME280;44475;53.206;-6.106;2023-07-13T10:05:00;101359.53;;;25.05;48.62
58698;BME280;44475;53.206;-6.106;2023-07-13T10:07:27;101362.44;;;25.04;48.64
58698;BME280;44475;53.206;-6.106;2023-07-13T10:09:54;101358.69;;;25.05;48.53
58698;BME280;44475;53.206;-6.106;2023-07-13T10:12:22;101357.09;;;25.02;48.75
58698;BME280;44475;53.206;-6.106;2023-07-13T10:14:56;101357.13;;;25.12;48.54
58698;BME280;44475;53.206;-6.106;2023-07-13T10:17:32;101358.41;;;25.08;48.54
58698;BME280;44475;53.206;-6.106;2023-07-13T10:20:07;101356.63;;;24.97;48.76
58698;BME280;44475;53.206;-6.106;2023-07-13T10:22:59;101352.06;;;25.07;48.66
58698;BME280;44475;53.206;-6.106;2023-07-13T10:25:39;101362.16;;;25.07;48.57
58698;BME280;44475;53.206;-6.106;2023-07-13T10:30:49;101367.38;;;25.10;48.59
58698;BME280;44475;53.206;-6.106;2023-07-13T10:33:18;101364.31;;;25.03;48.59
58698;BME280;44475;53.206;-6.106;2023-07-13T10:35:48;101367.56;;;24.97;48.99
58698;BME280;44475;53.206;-6.106;2023-07-13T10:38:22;101368.75;;;24.94;46.62
58698;BME280;44475;53.206;-6.106;2023-07-13T10:41:08;101366.19;;;24.60;47.62
58698;BME280;44475;53.206;-6.106;2023-07-13T10:43:46;101373.16;;;24.31;46.44
58698;BME280;44475;53.206;-6.106;2023-07-13T10:46:16;101375.00;;;24.42;47.01
58698;BME280;44475;53.206;-6.106;2023-07-13T10:48:44;101364.41;;;24.37;46.17
58698;BME280;44475;53.206;-6.106;2023-07-13T10:51:16;101357.59;;;24.31;46.58
58698;BME280;44475;53.206;-6.106;2023-07-13T10:53:43;101357.97;;;24.26;47.42
58698;BME280;44475;53.206;-6.106;2023-07-13T10:56:29;101356.34;;;24.24;45.37
58698;BME280;44475;53.206;-6.106;2023-07-13T10:59:31;101352.75;;;24.23;46.67
58698;BME280;44475;53.206;-6.106;2023-07-13T11:04:48;101352.97;;;23.98;48.21
58698;BME280;44475;53.206;-6.106;2023-07-13T11:09:52;101343.66;;;23.89;48.90
58698;BME280;44475;53.206;-6.106;2023-07-13T11:12:27;101351.41;;;23.61;49.16
58698;BME280;44475;53.206;-6.106;2023-07-13T11:17:34;101357.22;;;23.79;48.79
58698;BME280;44475;53.206;-6.106;2023-07-13T11:22:51;101339.72;;;23.47;50.04
58698;BME280;44475;53.206;-6.106;2023-07-13T11:25:27;101345.91;;;23.61;50.01
58698;BME280;44475;53.206;-6.106;2023-07-13T11:28:17;101347.53;;;23.87;49.49
58698;BME280;44475;53.206;-6.106;2023-07-13T11:36:04;101343.44;;;23.58;50.20
58698;BME280;44475;53.206;-6.106;2023-07-13T11:38:42;101342.84;;;23.66;50.68
58698;BME280;44475;53.206;-6.106;2023-07-13T11:41:26;101334.75;;;23.53;50.24
58698;BME280;44475;53.206;-6.106;2023-07-13T11:44:07;101337.50;;;23.18;51.04
58698;BME280;44475;53.206;-6.106;2023-07-13T11:46:33;101338.88;;;23.24;50.94
58698;BME280;44475;53.206;-6.106;2023-07-13T11:49:00;101341.22;;;23.28;50.82
58698;BME280;44475;53.206;-6.106;2023-07-13T11:51:29;101349.19;;;23.32;50.57
58698;BME280;44475;53.206;-6.106;2023-07-13T11:54:03;101333.41;;;23.35;50.23
58698;BME280;44475;53.206;-6.106;2023-07-13T11:56:31;101343.47;;;23.35;50.39
58698;BME280;44475;53.206;-6.106;2023-07-13T11:59:02;101351.91;;;23.55;49.25
58698;BME280;44475;53.206;-6.106;2023-07-13T12:01:31;101348.66;;;23.61;49.30
58698;BME280;44475;53.206;-6.106;2023-07-13T12:04:00;101343.44;;;23.58;49.51
58698;BME280;44475;53.206;-6.106;2023-07-13T12:06:32;101347.34;;;23.67;47.82
58698;BME280;44475;53.206;-6.106;2023-07-13T12:09:00;101346.78;;;23.62;47.96
58698;BME280;44475;53.206;-6.106;2023-07-13T12:11:29;101344.44;;;23.68;48.44
58698;BME280;44475;53.206;-6.106;2023-07-13T12:13:56;101338.47;;;23.75;47.84
58698;BME280;44475;53.206;-6.106;2023-07-13T12:18:53;101338.16;;;24.01;48.52
58698;BME280;44475;53.206;-6.106;2023-07-13T12:21:26;101336.97;;;24.15;48.21
58698;BME280;44475;53.206;-6.106;2023-07-13T12:23:55;101333.34;;;24.26;47.70
58698;BME280;44475;53.206;-6.106;2023-07-13T12:26:21;101331.47;;;24.27;47.53
58698;BME280;44475;53.206;-6.106;2023-07-13T12:28:51;101328.47;;;24.30;47.39
58698;BME280;44475;53.206;-6.106;2023-07-13T12:31:33;101336.81;;;24.28;47.36
58698;BME280;44475;53.206;-6.106;2023-07-13T12:34:17;101335.28;;;24.36;47.35
58698;BME280;44475;53.206;-6.106;2023-07-13T12:36:59;101331.31;;;24.40;47.20
58698;BME280;44475;53.206;-6.106;2023-07-13T12:39:36;101333.78;;;24.43;47.26
58698;BME280;44475;53.206;-6.106;2023-07-13T12:44:44;101321.88;;;24.54;47.23
58698;BME280;44475;53.206;-6.106;2023-07-13T12:47:13;101332.59;;;24.57;47.10
58698;BME280;44475;53.206;-6.106;2023-07-13T12:49:48;101326.97;;;24.59;47.25
58698;BME280;44475;53.206;-6.106;2023-07-13T12:52:22;101322.94;;;24.63;47.42
58698;BME280;44475;53.206;-6.106;2023-07-13T12:55:13;101329.47;;;24.62;47.33
58698;BME280;44475;53.206;-6.106;2023-07-13T13:00:28;101313.78;;;24.74;47.33
58698;BME280;44475;53.206;-6.106;2023-07-13T13:02:56;101318.25;;;24.75;47.34
58698;BME280;44475;53.206;-6.106;2023-07-13T13:05:26;101319.88;;;24.78;47.19
58698;BME280;44475;53.206;-6.106;2023-07-13T13:07:53;101314.25;;;24.80;47.30
58698;BME280;44475;53.206;-6.106;2023-07-13T13:10:19;101312.41;;;24.80;47.43
58698;BME280;44475;53.206;-6.106;2023-07-13T13:12:47;101305.44;;;24.76;47.34
58698;BME280;44475;53.206;-6.106;2023-07-13T13:15:14;101302.56;;;24.77;47.67
58698;BME280;44475;53.206;-6.106;2023-07-13T13:17:42;101303.31;;;24.80;47.54
58698;BME280;44475;53.206;-6.106;2023-07-13T13:20:20;101299.69;;;24.79;47.68
58698;BME280;44475;53.206;-6.106;2023-07-13T13:22:47;101307.34;;;24.85;47.79
58698;BME280;44475;53.206;-6.106;2023-07-13T13:25:14;101302.88;;;24.84;47.53
58698;BME280;44475;53.206;-6.106;2023-07-13T13:27:45;101303.75;;;24.85;47.52
58698;BME280;44475;53.206;-6.106;2023-07-13T13:30:16;101303.63;;;24.86;47.65
58698;BME280;44475;53.206;-6.106;2023-07-13T13:32:45;101294.41;;;24.87;47.76
58698;BME280;44475;53.206;-6.106;2023-07-13T13:35:17;101296.56;;;24.84;47.88
58698;BME280;44475;53.206;-6.106;2023-07-13T13:37:45;101291.13;;;24.94;47.74
58698;BME280;44475;53.206;-6.106;2023-07-13T13:40:17;101279.72;;;24.98;47.64